createdAt,value
2022-12-03T00:03:11.104Z,44.47
2022-12-03T00:08:14.813Z,41.07
2022-12-03T00:13:18.348Z,43.23
2022-12-03T00:18:23.324Z,45.27
2022-12-03T00:23:26.718Z,53.83
2022-12-03T00:28:30.399Z,45.93
2022-12-03T00:33:35.453Z,54.00
2022-12-03T00:38:39.390Z,48.73
2022-12-03T00:43:42.717Z,53.97
2022-12-03T00:48:47.930Z,60.50
2022-12-03T00:53:51.584Z,54.83
2022-12-03T00:58:55.018Z,61.80
2022-12-03T01:04:00.025Z,53.30
2022-12-03T01:09:03.619Z,64.97
2022-12-03T01:14:07.843Z,63.33
2022-12-03T01:19:16.166Z,66.47
2022-12-03T01:24:20.014Z,67.43
2022-12-03T01:29:23.940Z,71.17
2022-12-03T01:34:28.694Z,77.40
2022-12-03T01:39:32.391Z,63.53
2022-12-03T01:44:37.118Z,80.10
2022-12-03T01:49:43.654Z,68.60
2022-12-03T01:54:48.620Z,73.60
2022-12-03T01:59:53.428Z,64.30
2022-12-03T02:04:58.588Z,70.83
2022-12-03T02:10:03.278Z,77.67
2022-12-03T02:15:08.073Z,75.93
2022-12-03T02:20:13.717Z,70.97
2022-12-03T02:25:20.002Z,61.83
2022-12-03T02:30:24.900Z,76.87
2022-12-03T02:35:29.371Z,66.03
2022-12-03T02:40:34.646Z,67.37
2022-12-03T02:45:39.784Z,81.90
2022-12-03T02:50:45.057Z,73.33
2022-12-03T02:55:50.730Z,66.70
2022-12-03T03:00:55.328Z,67.67
2022-12-03T03:06:00.387Z,71.90
2022-12-03T03:11:05.693Z,66.70
2022-12-03T03:16:10.619Z,70.80
2022-12-03T03:21:14.840Z,74.80
2022-12-03T03:26:19.952Z,67.23
2022-12-03T03:31:26.016Z,66.90
2022-12-03T03:36:29.678Z,59.23
2022-12-03T03:41:35.743Z,52.73
2022-12-03T03:46:40.226Z,58.63
2022-12-03T03:51:43.892Z,63.90
2022-12-03T03:56:49.863Z,62.40
2022-12-03T04:01:53.608Z,59.27
2022-12-03T04:06:57.221Z,59.17
2022-12-03T04:12:19.947Z,50.10
2022-12-03T04:17:23.621Z,56.70
2022-12-03T04:22:42.052Z,56.70
2022-12-03T04:28:04.648Z,49.67
2022-12-03T04:33:25.494Z,48.30
2022-12-03T04:38:28.981Z,57.20
2022-12-03T04:43:35.065Z,57.07
2022-12-03T04:48:38.454Z,52.87
2022-12-03T04:53:46.029Z,48.27
2022-12-03T04:58:51.597Z,47.57
2022-12-03T05:03:55.301Z,48.27
2022-12-03T05:08:58.680Z,50.10
2022-12-03T05:14:03.955Z,44.67
2022-12-03T05:19:09.063Z,44.23
2022-12-03T05:24:12.626Z,36.97
2022-12-03T05:29:17.580Z,31.37
2022-12-03T05:34:20.989Z,33.57
2022-12-03T05:39:24.384Z,37.00
2022-12-03T05:44:29.334Z,35.23
2022-12-03T05:49:32.675Z,36.00
2022-12-03T05:54:36.517Z,33.87
2022-12-03T05:59:41.665Z,38.57
2022-12-03T06:04:45.376Z,36.50
2022-12-03T06:09:48.987Z,30.23
2022-12-03T06:14:55.345Z,23.43
2022-12-03T06:19:59.708Z,20.93
2022-12-03T06:25:06.838Z,25.97
2022-12-03T22:35:56.405Z,43.27
2022-12-03T22:41:01.057Z,40.43
2022-12-03T22:46:04.849Z,44.60
2022-12-03T22:51:13.302Z,34.90
2022-12-03T22:56:17.686Z,31.43
2022-12-03T23:01:22.325Z,32.20
2022-12-03T23:06:27.944Z,29.13
2022-12-03T23:11:31.449Z,38.23
2022-12-03T23:16:35.502Z,39.93
2022-12-03T23:21:40.645Z,41.20
2022-12-03T23:26:44.072Z,34.23
2022-12-03T23:31:47.600Z,43.97
2022-12-03T23:36:52.791Z,33.93
2022-12-03T23:41:56.447Z,43.33
2022-12-03T23:46:59.913Z,46.83
2022-12-03T23:52:04.986Z,42.43
2022-12-03T23:57:08.472Z,38.70
